createdAt,value
2023-04-16T00:01:02.783Z,43.86
2023-04-16T00:03:29.658Z,43.91
2023-04-16T00:05:56.781Z,44.03
2023-04-16T00:08:24.732Z,44.07
2023-04-16T00:10:52.989Z,43.84
2023-04-16T00:13:19.851Z,44.04
2023-04-16T00:15:46.402Z,44.03
2023-04-16T00:18:15.680Z,43.93
2023-04-16T00:20:42.400Z,44.02
2023-04-16T00:23:08.974Z,44.09
2023-04-16T00:25:35.473Z,44.02
2023-04-16T00:28:02.047Z,44.14
2023-04-16T00:30:28.629Z,43.66
2023-04-16T00:32:55.288Z,43.87
2023-04-16T00:35:22.008Z,43.83
2023-04-16T00:37:48.724Z,43.86
2023-04-16T00:40:15.284Z,43.98
2023-04-16T00:42:41.810Z,43.96
2023-04-16T00:45:09.589Z,43.96
2023-04-16T00:47:36.203Z,43.81
2023-04-16T00:50:04.421Z,43.86
2023-04-16T00:52:34.668Z,43.67
2023-04-16T00:55:01.305Z,43.84
2023-04-16T00:57:27.938Z,43.60
2023-04-16T00:59:54.832Z,43.70
2023-04-16T01:02:21.589Z,43.63
2023-04-16T01:04:51.595Z,43.88
2023-04-16T01:07:18.191Z,43.82
2023-04-16T01:09:44.721Z,43.67
2023-04-16T01:12:11.442Z,43.74
2023-04-16T01:14:38.098Z,43.53
2023-04-16T01:17:05.102Z,43.84
2023-04-16T01:19:31.655Z,43.83
2023-04-16T01:21:59.305Z,43.58
2023-04-16T01:24:25.843Z,43.74
2023-04-16T01:26:55.438Z,43.76
2023-04-16T01:29:21.975Z,43.51
2023-04-16T01:31:50.810Z,43.82
2023-04-16T01:34:31.021Z,43.80
2023-04-16T01:36:58.257Z,43.69
2023-04-16T01:39:24.803Z,43.63
2023-04-16T01:41:51.405Z,43.38
2023-04-16T01:44:17.929Z,43.63
2023-04-16T01:46:45.053Z,43.63
2023-04-16T01:49:11.930Z,43.35
2023-04-16T01:51:38.640Z,43.50
2023-04-16T01:54:09.120Z,43.28
2023-04-16T01:56:35.826Z,43.90
2023-04-16T01:59:02.481Z,43.40
2023-04-16T02:01:35.577Z,43.37
2023-04-16T02:04:02.837Z,43.19
2023-04-16T02:06:29.576Z,43.30
2023-04-16T02:08:56.213Z,43.46
2023-04-16T02:11:22.745Z,43.23
2023-04-16T02:13:50.485Z,43.32
2023-04-16T02:16:18.458Z,43.47
2023-04-16T02:19:04.555Z,43.33
2023-04-16T02:21:34.477Z,43.83
2023-04-16T02:24:01.272Z,43.48
2023-04-16T02:26:30.257Z,43.05
2023-04-16T02:29:02.228Z,43.07
2023-04-16T02:31:37.560Z,43.50
2023-04-16T02:34:05.355Z,43.43
2023-04-16T02:36:32.118Z,43.24
2023-04-16T02:38:59.545Z,43.50
2023-04-16T02:41:26.491Z,43.07
2023-04-16T02:43:53.123Z,43.11
2023-04-16T02:46:19.755Z,43.06
2023-04-16T02:48:46.514Z,43.32
2023-04-16T02:51:13.194Z,43.18
2023-04-16T02:53:39.917Z,43.31
2023-04-16T02:56:07.049Z,43.24
2023-04-16T02:58:33.904Z,42.99
2023-04-16T03:01:00.531Z,42.62
2023-04-16T03:03:27.402Z,42.99
2023-04-16T03:05:53.975Z,43.41
2023-04-16T03:08:20.744Z,43.47
2023-04-16T03:10:47.432Z,42.91
2023-04-16T03:13:14.742Z,43.00
2023-04-16T03:15:41.241Z,43.07
2023-04-16T03:18:08.040Z,42.94
2023-04-16T03:20:34.562Z,42.80
2023-04-16T03:23:01.207Z,42.90
2023-04-16T03:25:27.931Z,42.99
2023-04-16T03:27:54.491Z,43.16
2023-04-16T03:30:21.098Z,42.65
2023-04-16T03:32:47.765Z,43.14
2023-04-16T03:35:14.801Z,43.10
2023-04-16T03:37:41.910Z,42.91
2023-04-16T03:40:08.943Z,42.87
2023-04-16T03:42:35.516Z,42.84
2023-04-16T03:45:02.625Z,42.77
2023-04-16T03:47:29.793Z,42.53
2023-04-16T03:50:00.219Z,42.68
2023-04-16T03:52:28.153Z,42.62
2023-04-16T03:54:55.147Z,42.61
2023-04-16T03:57:27.383Z,42.64
2023-04-16T03:59:58.285Z,42.69
2023-04-16T04:02:27.696Z,42.24
2023-04-16T04:04:54.885Z,42.64
2023-04-16T04:07:21.508Z,42.33
2023-04-16T04:09:48.273Z,42.47
2023-04-16T04:12:15.341Z,42.45
2023-04-16T04:14:43.706Z,42.42
2023-04-16T04:17:10.494Z,42.30
2023-04-16T04:19:38.884Z,42.35
2023-04-16T04:25:17.938Z,42.29
2023-04-16T04:27:44.526Z,42.36
2023-04-16T04:30:11.709Z,42.37
2023-04-16T04:32:39.302Z,42.46
2023-04-16T04:35:06.561Z,42.27
2023-04-16T04:37:33.366Z,42.18
2023-04-16T04:40:05.651Z,42.15
2023-04-16T04:42:34.535Z,42.21
2023-04-16T04:45:01.277Z,42.08
2023-04-16T04:47:30.855Z,42.01
2023-04-16T04:49:57.587Z,41.69
2023-04-16T04:52:24.940Z,41.98
2023-04-16T04:54:52.493Z,42.00
2023-04-16T04:57:19.630Z,42.08
2023-04-16T04:59:46.404Z,41.79
2023-04-16T05:02:14.362Z,41.72
2023-04-16T05:04:40.955Z,41.90
2023-04-16T05:07:07.562Z,41.90
2023-04-16T05:09:34.131Z,41.64
2023-04-16T05:12:00.805Z,41.75
2023-04-16T05:14:27.303Z,41.93
2023-04-16T05:16:54.129Z,41.67
2023-04-16T05:19:21.140Z,41.55
2023-04-16T05:21:47.674Z,41.68
2023-04-16T05:24:15.080Z,41.73
2023-04-16T05:26:41.801Z,41.57
2023-04-16T05:29:08.499Z,41.61
2023-04-16T05:31:35.444Z,41.71
2023-04-16T05:34:01.996Z,41.56
2023-04-16T05:36:28.520Z,41.81
2023-04-16T05:38:55.081Z,41.80
2023-04-16T05:41:21.629Z,41.73
2023-04-16T05:43:48.237Z,41.69
2023-04-16T05:46:14.889Z,41.72
2023-04-16T05:48:41.410Z,41.41
2023-04-16T05:51:08.081Z,41.28
2023-04-16T05:53:34.628Z,41.57
2023-04-16T05:56:01.241Z,41.49
2023-04-16T05:58:27.722Z,41.44
2023-04-16T06:00:54.546Z,41.59
2023-04-16T06:03:21.253Z,41.33
2023-04-16T06:05:47.942Z,41.35
2023-04-16T06:08:14.517Z,41.50
2023-04-16T06:10:41.136Z,41.43
2023-04-16T06:13:07.633Z,41.55
2023-04-16T06:15:34.251Z,41.74
2023-04-16T06:18:01.087Z,41.72
2023-04-16T06:20:27.937Z,41.77
2023-04-16T06:22:55.888Z,41.88
2023-04-16T06:25:22.495Z,41.72
2023-04-16T06:27:49.113Z,41.69
2023-04-16T06:30:16.588Z,41.36
2023-04-16T06:32:44.230Z,41.17
2023-04-16T06:35:10.951Z,41.34
2023-04-16T06:37:37.531Z,41.18
2023-04-16T06:40:04.858Z,40.75
2023-04-16T06:42:31.541Z,40.61
2023-04-16T06:44:58.259Z,40.86
2023-04-16T06:47:24.958Z,40.71
2023-04-16T06:49:51.533Z,40.37
2023-04-16T06:52:18.138Z,40.47
2023-04-16T06:54:44.735Z,40.22
2023-04-16T06:57:11.371Z,40.31
2023-04-16T06:59:38.806Z,40.00
2023-04-16T07:02:05.745Z,40.15
2023-04-16T07:04:35.837Z,40.61
2023-04-16T07:07:02.400Z,40.97
2023-04-16T07:09:28.901Z,41.41
2023-04-16T07:11:55.577Z,41.43
2023-04-16T07:14:22.149Z,41.65
2023-04-16T07:16:48.735Z,41.38
2023-04-16T07:19:15.563Z,41.02
2023-04-16T07:21:43.681Z,41.03
2023-04-16T07:24:14.110Z,40.68
2023-04-16T07:26:40.971Z,40.86
2023-04-16T07:29:07.694Z,41.73
2023-04-16T07:31:34.396Z,41.91
2023-04-16T07:34:01.129Z,42.40
2023-04-16T07:36:28.353Z,42.54
2023-04-16T07:38:56.013Z,42.40
2023-04-16T07:41:22.674Z,42.53
2023-04-16T07:43:49.373Z,42.53
2023-04-16T07:46:16.246Z,42.81
2023-04-16T07:48:43.097Z,43.02
2023-04-16T07:51:09.879Z,43.41
2023-04-16T07:53:36.386Z,43.57
2023-04-16T07:56:02.947Z,43.10
2023-04-16T07:58:29.486Z,42.71
2023-04-16T08:00:56.221Z,42.79
2023-04-16T08:03:23.111Z,42.41
2023-04-16T08:05:50.090Z,42.14
2023-04-16T08:08:16.784Z,42.17
2023-04-16T08:10:43.335Z,42.18
2023-04-16T08:13:09.947Z,41.84
2023-04-16T08:15:36.875Z,41.15
2023-04-16T08:18:05.849Z,39.88
2023-04-16T08:20:35.768Z,39.31
2023-04-16T08:23:02.256Z,38.76
2023-04-16T08:25:28.863Z,38.46
2023-04-16T08:27:55.546Z,38.74
2023-04-16T08:30:22.261Z,38.33
2023-04-16T08:32:50.126Z,38.38
2023-04-16T08:35:17.512Z,37.89
2023-04-16T08:37:44.023Z,37.70
2023-04-16T08:40:11.033Z,37.40
2023-04-16T08:42:55.932Z,37.38
2023-04-16T08:45:23.143Z,37.04
2023-04-16T08:47:51.865Z,36.85
2023-04-16T08:50:23.211Z,36.79
2023-04-16T08:53:11.303Z,36.65
2023-04-16T08:55:40.702Z,36.77
2023-04-16T08:58:22.424Z,36.76
2023-04-16T09:00:49.555Z,36.68
2023-04-16T09:03:16.566Z,37.44
2023-04-16T09:05:43.961Z,38.49
2023-04-16T09:08:10.595Z,40.39
2023-04-16T09:10:37.155Z,41.40
2023-04-16T09:13:03.808Z,42.26
2023-04-16T09:15:30.721Z,42.77
2023-04-16T09:17:57.642Z,42.82
2023-04-16T09:20:24.737Z,43.21
2023-04-16T09:22:51.532Z,43.18
2023-04-16T09:25:22.040Z,43.46
2023-04-16T09:27:52.094Z,43.39
2023-04-16T09:30:27.133Z,43.39
2023-04-16T09:33:23.548Z,43.40
2023-04-16T09:35:53.763Z,42.88
2023-04-16T09:38:21.094Z,42.96
2023-04-16T09:40:47.847Z,43.51
2023-04-16T09:43:18.330Z,43.64
2023-04-16T09:45:52.921Z,43.91
2023-04-16T09:48:28.446Z,43.55
2023-04-16T09:50:56.261Z,43.36
2023-04-16T09:53:30.330Z,43.12
2023-04-16T09:56:02.376Z,42.94
2023-04-16T09:58:29.665Z,42.46
2023-04-16T10:01:06.876Z,42.22
2023-04-16T10:03:35.175Z,42.35
2023-04-16T10:06:14.926Z,41.98
2023-04-16T10:08:53.092Z,42.16
2023-04-16T10:11:20.887Z,42.34
2023-04-16T10:13:47.451Z,42.09
2023-04-16T10:16:14.170Z,42.07
2023-04-16T10:18:42.711Z,42.88
2023-04-16T10:21:16.322Z,43.21
2023-04-16T10:23:44.076Z,42.99
2023-04-16T10:26:11.106Z,42.65
2023-04-16T10:28:38.200Z,42.35
2023-04-16T10:31:08.119Z,42.08
2023-04-16T10:33:36.850Z,41.52
2023-04-16T10:36:16.193Z,41.35
2023-04-16T10:38:53.069Z,41.05
2023-04-16T10:41:20.658Z,40.65
2023-04-16T10:43:52.550Z,40.40
2023-04-16T10:46:19.753Z,40.05
2023-04-16T10:48:55.737Z,39.76
2023-04-16T10:51:27.790Z,39.93
2023-04-16T10:53:56.241Z,39.67
2023-04-16T10:56:25.299Z,39.37
2023-04-16T10:58:54.903Z,39.36
2023-04-16T11:01:31.367Z,38.82
2023-04-16T11:04:19.546Z,39.05
2023-04-16T11:07:07.598Z,39.06
2023-04-16T11:09:59.294Z,38.86
2023-04-16T11:12:40.395Z,38.54
2023-04-16T11:15:08.529Z,38.93
2023-04-16T11:17:48.706Z,39.16
2023-04-16T11:20:20.506Z,38.71
2023-04-16T11:22:49.169Z,38.80
2023-04-16T11:25:22.895Z,38.64
2023-04-16T11:27:51.193Z,38.62
2023-04-16T11:30:18.983Z,38.72
2023-04-16T11:32:45.988Z,38.46
2023-04-16T11:35:19.399Z,38.60
2023-04-16T11:37:48.309Z,38.62
2023-04-16T11:42:31.497Z,38.90
2023-04-16T11:45:00.877Z,38.44
2023-04-16T11:47:27.617Z,38.29
2023-04-16T11:49:54.298Z,38.34
2023-04-16T11:52:31.966Z,38.70
2023-04-16T11:54:59.472Z,39.31
2023-04-16T11:57:31.241Z,39.33
2023-04-16T12:00:02.012Z,39.64
2023-04-16T12:02:53.774Z,39.41
2023-04-16T12:05:31.690Z,39.29
2023-04-16T12:08:03.237Z,39.25
2023-04-16T12:10:36.574Z,38.98
2023-04-16T12:13:15.083Z,38.85
2023-04-16T12:15:52.307Z,39.03
2023-04-16T12:18:22.366Z,38.65
2023-04-16T12:20:51.045Z,38.70
2023-04-16T12:23:26.825Z,38.59
2023-04-16T12:25:54.310Z,38.39
2023-04-16T12:28:35.085Z,38.50
2023-04-16T12:31:02.841Z,39.15
2023-04-16T12:33:29.638Z,39.49
2023-04-16T12:35:56.897Z,39.75
2023-04-16T12:38:24.715Z,39.66
2023-04-16T12:40:52.141Z,39.97
2023-04-16T12:43:19.846Z,40.06
2023-04-16T12:45:46.542Z,39.99
2023-04-16T12:48:16.037Z,39.68
2023-04-16T12:50:44.246Z,39.50
2023-04-16T12:53:11.726Z,39.43
2023-04-16T12:55:40.877Z,40.01
2023-04-16T12:58:09.813Z,40.45
2023-04-16T13:00:37.769Z,41.12
2023-04-16T13:03:04.736Z,41.30
2023-04-16T13:05:31.493Z,41.41
2023-04-16T13:07:58.065Z,40.69
2023-04-16T13:10:24.942Z,40.60
2023-04-16T13:12:51.467Z,39.99
2023-04-16T13:15:20.879Z,39.99
2023-04-16T13:17:47.469Z,39.55
2023-04-16T13:20:14.051Z,39.30
2023-04-16T13:22:40.765Z,39.13
2023-04-16T13:25:08.120Z,39.39
2023-04-16T13:27:34.666Z,39.42
2023-04-16T13:30:01.316Z,39.15
2023-04-16T13:32:27.936Z,39.17
2023-04-16T13:34:54.604Z,39.22
2023-04-16T13:37:21.102Z,39.23
2023-04-16T13:39:47.629Z,39.35
2023-04-16T13:42:14.240Z,39.16
2023-04-16T13:44:41.040Z,39.10
2023-04-16T13:47:08.006Z,39.25
2023-04-16T13:49:36.011Z,39.20
2023-04-16T13:52:03.158Z,38.92
2023-04-16T13:54:29.823Z,38.68
2023-04-16T13:56:56.735Z,38.84
2023-04-16T13:59:23.620Z,38.85
2023-04-16T14:01:51.038Z,36.64
2023-04-16T14:04:17.878Z,35.64
2023-04-16T14:06:44.465Z,34.48
2023-04-16T14:09:12.063Z,33.71
2023-04-16T14:11:38.998Z,33.15
2023-04-16T14:14:05.999Z,34.73
2023-04-16T14:16:32.788Z,36.45
2023-04-16T14:18:59.780Z,37.68
2023-04-16T14:21:27.012Z,38.88
2023-04-16T14:23:56.915Z,39.11
2023-04-16T14:26:23.519Z,39.40
2023-04-16T14:28:50.997Z,39.71
2023-04-16T14:31:18.103Z,39.98
2023-04-16T14:33:46.910Z,40.01
2023-04-16T14:36:13.642Z,40.23
2023-04-16T14:38:40.792Z,40.63
2023-04-16T14:41:07.392Z,41.49
2023-04-16T14:43:34.294Z,42.50
2023-04-16T14:46:00.845Z,43.50
2023-04-16T14:48:27.438Z,44.23
2023-04-16T14:50:54.004Z,44.12
2023-04-16T14:53:20.873Z,43.66
2023-04-16T14:55:47.734Z,43.55
2023-04-16T14:58:14.366Z,43.45
2023-04-16T15:00:41.362Z,43.04
2023-04-16T15:03:08.226Z,42.67
2023-04-16T15:05:35.991Z,42.48
2023-04-16T15:08:02.797Z,42.29
2023-04-16T15:10:29.966Z,42.00
2023-04-16T15:12:56.852Z,41.93
2023-04-16T15:15:23.436Z,41.56
2023-04-16T15:17:51.052Z,41.19
2023-04-16T15:20:18.057Z,41.24
2023-04-16T15:22:46.827Z,40.89
2023-04-16T15:25:14.485Z,40.69
2023-04-16T15:27:41.240Z,40.63
2023-04-16T15:30:08.622Z,40.26
2023-04-16T15:32:35.579Z,40.30
2023-04-16T15:35:03.503Z,39.95
2023-04-16T15:37:30.238Z,39.86
2023-04-16T15:39:57.054Z,39.98
2023-04-16T15:42:23.933Z,39.82
2023-04-16T15:44:50.510Z,39.71
2023-04-16T15:47:17.161Z,39.81
2023-04-16T15:49:43.650Z,39.38
2023-04-16T15:52:11.928Z,39.64
2023-04-16T15:54:38.625Z,39.50
2023-04-16T15:57:05.202Z,39.47
2023-04-16T15:59:32.596Z,39.59
2023-04-16T16:01:59.551Z,39.51
2023-04-16T16:04:28.055Z,39.33
2023-04-16T16:06:54.897Z,39.22
2023-04-16T16:09:27.181Z,38.68
2023-04-16T16:11:54.354Z,36.93
2023-04-16T16:14:22.191Z,36.61
2023-04-16T16:16:49.476Z,35.79
2023-04-16T16:19:16.652Z,34.64
2023-04-16T16:21:43.424Z,34.05
2023-04-16T16:24:09.953Z,33.91
2023-04-16T16:26:36.632Z,33.95
2023-04-16T16:29:03.645Z,33.65
2023-04-16T16:31:30.611Z,33.45
2023-04-16T16:33:57.235Z,33.70
2023-04-16T16:36:23.894Z,33.27
2023-04-16T16:38:50.575Z,33.54
2023-04-16T16:41:17.308Z,33.82
2023-04-16T16:43:43.815Z,34.01
2023-04-16T16:46:10.951Z,34.61
2023-04-16T16:48:37.532Z,36.03
2023-04-16T16:51:04.177Z,36.95
2023-04-16T16:53:30.781Z,37.38
2023-04-16T16:55:57.351Z,37.75
2023-04-16T16:58:23.926Z,37.93
2023-04-16T17:00:50.850Z,37.67
2023-04-16T17:03:18.507Z,37.74
2023-04-16T17:05:47.338Z,38.46
2023-04-16T17:08:14.956Z,38.61
2023-04-16T17:10:43.829Z,39.05
2023-04-16T17:13:10.492Z,39.05
2023-04-16T17:15:37.313Z,39.72
2023-04-16T17:18:04.028Z,39.89
2023-04-16T17:20:30.723Z,39.93
2023-04-16T17:22:57.367Z,40.36
2023-04-16T17:25:23.955Z,40.28
2023-04-16T17:27:50.530Z,40.65
2023-04-16T17:30:17.432Z,40.24
2023-04-16T17:32:45.073Z,39.66
2023-04-16T17:35:16.781Z,39.58
2023-04-16T17:37:43.340Z,39.85
2023-04-16T17:40:10.222Z,40.05
2023-04-16T17:42:37.137Z,40.92
2023-04-16T17:45:03.957Z,40.84
2023-04-16T17:47:31.413Z,40.84
2023-04-16T17:49:58.152Z,40.85
2023-04-16T17:52:24.795Z,40.66
2023-04-16T17:54:53.090Z,40.45
2023-04-16T17:57:19.680Z,40.20
2023-04-16T17:59:46.326Z,40.38
2023-04-16T18:02:13.018Z,40.11
2023-04-16T18:04:39.804Z,40.38
2023-04-16T18:07:07.294Z,40.02
2023-04-16T18:09:33.993Z,40.09
2023-04-16T18:12:01.502Z,39.98
2023-04-16T18:14:29.205Z,39.95
2023-04-16T18:16:55.923Z,39.97
2023-04-16T18:19:22.768Z,39.80
2023-04-16T18:21:49.456Z,39.83
2023-04-16T18:24:16.069Z,39.63
2023-04-16T18:26:46.056Z,39.68
2023-04-16T18:29:14.413Z,39.38
2023-04-16T18:31:41.306Z,39.68
2023-04-16T18:34:08.157Z,39.65
2023-04-16T18:36:36.518Z,39.59
2023-04-16T18:39:03.291Z,39.60
2023-04-16T18:41:32.516Z,39.59
2023-04-16T18:43:59.319Z,39.50
2023-04-16T18:46:27.163Z,39.31
2023-04-16T18:48:56.811Z,39.12
2023-04-16T18:51:24.228Z,39.23
2023-04-16T18:53:51.276Z,39.26
2023-04-16T18:56:20.940Z,39.14
2023-04-16T18:58:48.315Z,39.26
2023-04-16T19:01:15.039Z,39.47
2023-04-16T19:03:44.435Z,39.14
2023-04-16T19:06:11.066Z,39.18
2023-04-16T19:08:40.130Z,39.28
2023-04-16T19:11:10.827Z,39.46
2023-04-16T19:13:38.644Z,39.35
2023-04-16T19:16:11.140Z,39.07
2023-04-16T19:18:40.322Z,39.31
2023-04-16T19:21:11.090Z,39.11
2023-04-16T19:23:39.037Z,38.97
2023-04-16T19:26:05.682Z,39.24
2023-04-16T19:28:40.527Z,39.29
2023-04-16T19:31:08.652Z,39.26
2023-04-16T19:33:36.131Z,39.15
2023-04-16T19:36:03.183Z,39.17
2023-04-16T19:38:31.960Z,38.96
2023-04-16T19:40:59.393Z,39.09
2023-04-16T19:43:27.581Z,39.07
2023-04-16T19:45:55.134Z,38.94
2023-04-16T19:48:22.517Z,38.99
2023-04-16T19:50:49.830Z,38.77
2023-04-16T19:53:19.276Z,38.91
2023-04-16T19:55:46.461Z,39.12
2023-04-16T19:58:15.644Z,39.05
2023-04-16T20:00:42.575Z,38.99
2023-04-16T20:03:09.656Z,39.57
2023-04-16T20:05:37.384Z,39.95
2023-04-16T20:08:04.404Z,40.40
2023-04-16T20:10:31.614Z,40.70
2023-04-16T20:12:58.464Z,40.99
2023-04-16T20:15:25.206Z,40.89
2023-04-16T20:17:54.630Z,40.76
2023-04-16T20:20:23.568Z,40.81
2023-04-16T20:22:50.655Z,40.35
2023-04-16T20:25:21.560Z,40.47
2023-04-16T20:27:48.486Z,40.66
2023-04-16T20:30:15.264Z,40.75
2023-04-16T20:32:42.075Z,41.01
2023-04-16T20:35:10.937Z,41.23
2023-04-16T20:37:38.565Z,41.53
2023-04-16T20:40:07.808Z,41.57
2023-04-16T20:42:34.666Z,41.75
2023-04-16T20:45:01.330Z,41.88
2023-04-16T20:47:28.223Z,42.06
2023-04-16T20:49:55.176Z,41.97
2023-04-16T20:52:21.737Z,41.67
2023-04-16T20:54:48.242Z,41.68
2023-04-16T20:57:14.995Z,41.67
2023-04-16T20:59:41.536Z,41.54
2023-04-16T21:02:08.319Z,41.40
2023-04-16T21:04:35.058Z,41.64
2023-04-16T21:07:04.117Z,41.55
2023-04-16T21:09:31.456Z,41.26
2023-04-16T21:11:58.163Z,41.28
2023-04-16T21:14:24.681Z,41.07
2023-04-16T21:16:51.794Z,41.02
2023-04-16T21:19:22.410Z,41.26
2023-04-16T21:21:48.999Z,40.80
2023-04-16T21:24:15.783Z,40.88
2023-04-16T21:26:42.365Z,40.83
2023-04-16T21:29:08.999Z,40.87
2023-04-16T21:31:35.639Z,40.85
2023-04-16T21:34:02.287Z,40.62
2023-04-16T21:36:33.811Z,40.66
2023-04-16T21:39:00.484Z,40.60
2023-04-16T21:41:27.112Z,40.48
2023-04-16T21:43:53.826Z,40.28
2023-04-16T21:46:20.884Z,40.11
2023-04-16T21:48:48.500Z,39.79
2023-04-16T21:51:15.694Z,39.95
2023-04-16T21:53:42.302Z,40.14
2023-04-16T21:56:08.871Z,40.16
2023-04-16T21:58:35.613Z,40.06
2023-04-16T22:01:02.278Z,39.96
2023-04-16T22:03:30.581Z,39.93
2023-04-16T22:06:00.910Z,39.96
2023-04-16T22:08:28.901Z,39.58
2023-04-16T22:10:59.555Z,39.65
2023-04-16T22:13:26.984Z,39.55
2023-04-16T22:15:54.926Z,39.60
2023-04-16T22:18:27.021Z,39.42
2023-04-16T22:20:54.800Z,39.46
2023-04-16T22:23:25.711Z,39.47
2023-04-16T22:25:54.881Z,39.33
2023-04-16T22:28:21.597Z,39.30
2023-04-16T22:30:48.268Z,39.24
2023-04-16T22:33:15.249Z,39.29
2023-04-16T22:35:42.037Z,39.17
2023-04-16T22:38:08.574Z,39.27
2023-04-16T22:40:35.743Z,39.18
2023-04-16T22:43:02.317Z,39.18
2023-04-16T22:45:29.275Z,39.16
2023-04-16T22:47:55.870Z,39.15
2023-04-16T22:50:23.150Z,39.05
2023-04-16T22:52:49.689Z,38.91
2023-04-16T22:55:16.563Z,38.83
2023-04-16T22:57:43.201Z,39.03
2023-04-16T23:00:16.526Z,38.98
2023-04-16T23:02:44.191Z,38.75
2023-04-16T23:05:12.784Z,38.67
2023-04-16T23:07:39.493Z,38.94
2023-04-16T23:10:08.222Z,38.96
2023-04-16T23:12:37.151Z,38.96
2023-04-16T23:15:04.784Z,38.91
2023-04-16T23:17:31.465Z,38.61
2023-04-16T23:19:58.122Z,38.53
2023-04-16T23:22:24.863Z,38.60
2023-04-16T23:24:52.823Z,38.86
2023-04-16T23:27:19.379Z,38.57
2023-04-16T23:29:46.033Z,38.71
2023-04-16T23:32:12.653Z,38.81
2023-04-16T23:34:39.206Z,38.66
2023-04-16T23:37:05.915Z,38.77
2023-04-16T23:39:32.496Z,38.48
2023-04-16T23:41:59.596Z,38.62
2023-04-16T23:44:26.209Z,38.41
2023-04-16T23:46:52.875Z,38.67
2023-04-16T23:49:19.398Z,38.35
2023-04-16T23:51:46.044Z,38.40
2023-04-16T23:54:12.705Z,38.53
2023-04-16T23:56:39.277Z,38.63
2023-04-16T23:59:06.119Z,38.47
